createdAt,value
2023-11-25T00:00:01.659Z,1.72
2023-11-25T00:16:02.570Z,1.11
2023-11-25T00:31:03.610Z,0.5
2023-11-25T00:46:04.371Z,0.06
2023-11-25T01:00:04.864Z,-0.22
2023-11-25T01:16:05.494Z,-0.22
2023-11-25T01:31:05.310Z,-0.17
2023-11-25T01:46:01.897Z,-0.22
2023-11-25T02:00:02.572Z,-0.5
2023-11-25T02:16:03.181Z,-0.67
2023-11-25T02:31:03.796Z,-0.89
2023-11-25T02:46:04.536Z,-0.72
2023-11-25T03:00:05.171Z,-0.5
2023-11-25T03:16:04.949Z,0.11
2023-11-25T03:31:01.581Z,0.17
2023-11-25T03:46:01.470Z,0.06
2023-11-25T04:00:02.790Z,-0.17
2023-11-25T04:16:02.611Z,-0.61
2023-11-25T04:31:04.224Z,-0.78
2023-11-25T04:46:11.984Z,-0.83
2023-11-25T05:00:05.692Z,1
2023-11-25T05:16:06.081Z,1.33
2023-11-25T05:31:01.644Z,1.06
2023-11-25T05:46:02.281Z,0.44
2023-11-25T06:00:02.922Z,0.17
2023-11-25T06:16:03.651Z,0.11
2023-11-25T06:31:04.569Z,0.17
2023-11-25T06:46:05.531Z,0.17
2023-11-25T07:00:01.192Z,0.22
2023-11-25T07:16:01.656Z,0.72
2023-11-25T07:31:02.405Z,0.83
2023-11-25T07:46:03.129Z,0.56
2023-11-25T08:00:03.670Z,0.67
2023-11-25T08:16:04.651Z,1.11
2023-11-25T08:31:05.424Z,1.56
2023-11-25T08:46:06.070Z,1.94
2023-11-25T09:00:01.442Z,2.33
2023-11-25T09:16:02.123Z,2.44
2023-11-25T09:31:02.766Z,2.61
2023-11-25T09:46:01.450Z,3
2023-11-25T10:00:04.368Z,3.44
2023-11-25T10:16:05.148Z,3.61
2023-11-25T10:31:05.873Z,3.78
2023-11-25T10:46:01.696Z,4.17
2023-11-25T11:00:02.196Z,4.28
2023-11-25T11:16:03.222Z,4.17
2023-11-25T11:31:04.090Z,4.17
2023-11-25T11:46:04.855Z,4.11
2023-11-25T12:00:05.906Z,4.06
2023-11-25T12:16:01.708Z,4.06
2023-11-25T12:31:01.860Z,4.11
2023-11-25T12:46:02.644Z,4.06
2023-11-25T13:00:03.266Z,4.22
2023-11-25T13:16:03.312Z,4.22
2023-11-25T13:31:04.802Z,4.28
2023-11-25T13:46:05.546Z,4
2023-11-25T14:00:06.045Z,3.78
2023-11-25T14:16:01.941Z,3.39
2023-11-25T14:31:02.952Z,3.17
2023-11-25T14:46:03.617Z,2.83
2023-11-25T15:00:04.510Z,2.61
2023-11-25T15:16:05.169Z,2.39
2023-11-25T15:31:05.677Z,2.11
2023-11-25T15:46:06.048Z,1.83
2023-11-25T16:00:01.611Z,1.67
2023-11-25T16:16:02.450Z,1.5
2023-11-25T16:31:03.394Z,1.28
2023-11-25T16:46:03.986Z,1
2023-11-25T17:00:04.681Z,0.67
2023-11-25T17:16:05.514Z,0.67
2023-11-25T17:31:01.307Z,0.67
2023-11-25T17:46:01.889Z,0.61
2023-11-25T18:00:02.933Z,0.44
2023-11-25T18:16:03.999Z,0.06
2023-11-25T18:31:04.480Z,-0.33
2023-11-25T18:46:05.347Z,-0.67
2023-11-25T19:00:06.009Z,-1.06
2023-11-25T19:16:01.765Z,-1.33
2023-11-25T19:31:02.634Z,-1.39
2023-11-25T19:46:03.835Z,-1.39
2023-11-25T20:00:04.161Z,-1.56
2023-11-25T20:16:05.032Z,-1.78
2023-11-25T20:31:05.755Z,-1.94
2023-11-25T20:46:01.698Z,-2.22
2023-11-25T21:00:02.391Z,-2.44
2023-11-25T21:16:03.090Z,-2.61
2023-11-25T21:31:03.907Z,-2.67
2023-11-25T21:46:04.744Z,-2.61
2023-11-25T22:00:04.468Z,-2.44
2023-11-25T22:16:01.192Z,-2.44
2023-11-25T22:31:02.235Z,-2.61
2023-11-25T22:46:03.155Z,-2.33
2023-11-25T23:00:03.109Z,-2.11
2023-11-25T23:16:04.844Z,-1.89
2023-11-25T23:31:04.694Z,-1.94
2023-11-25T23:46:01.341Z,-2.17
